sensor_id;sensor_type;location;lat;lon;timestamp;pressure;altitude;pressure_sealevel;temperature;humidity
22649;BME280;11491;41.942;24.220;2023-03-17T00:00:12;89777.13;;;1.93;82.11
22649;BME280;11491;41.942;24.220;2023-03-17T00:02:40;89768.25;;;1.76;82.43
22649;BME280;11491;41.942;24.220;2023-03-17T00:05:21;89775.19;;;1.85;82.41
22649;BME280;11491;41.942;24.220;2023-03-17T00:07:49;89778.44;;;1.82;82.05
22649;BME280;11491;41.942;24.220;2023-03-17T00:10:19;89776.78;;;1.86;82.00
22649;BME280;11491;41.942;24.220;2023-03-17T00:12:47;89778.31;;;1.87;82.18
22649;BME280;11491;41.942;24.220;2023-03-17T00:15:14;89770.22;;;1.70;82.26
22649;BME280;11491;41.942;24.220;2023-03-17T00:17:43;89776.94;;;1.76;82.31
22649;BME280;11491;41.942;24.220;2023-03-17T00:20:13;89770.13;;;1.75;82.20
22649;BME280;11491;41.942;24.220;2023-03-17T00:22:43;89776.00;;;1.72;82.65
22649;BME280;11491;41.942;24.220;2023-03-17T00:25:22;89774.81;;;1.78;82.98
22649;BME280;11491;41.942;24.220;2023-03-17T00:27:49;89769.63;;;1.73;82.64
22649;BME280;11491;41.942;24.220;2023-03-17T00:30:16;89779.47;;;1.81;82.54
22649;BME280;11491;41.942;24.220;2023-03-17T00:32:43;89776.78;;;1.86;82.56
22649;BME280;11491;41.942;24.220;2023-03-17T00:35:15;89782.22;;;1.90;82.11
22649;BME280;11491;41.942;24.220;2023-03-17T00:37:44;89766.22;;;1.86;81.87
22649;BME280;11491;41.942;24.220;2023-03-17T00:40:19;89781.03;;;1.96;81.57
22649;BME280;11491;41.942;24.220;2023-03-17T00:42:46;89780.38;;;1.90;81.37
22649;BME280;11491;41.942;24.220;2023-03-17T00:45:13;89779.31;;;1.91;81.74
22649;BME280;11491;41.942;24.220;2023-03-17T00:47:41;89776.19;;;1.89;81.70
22649;BME280;11491;41.942;24.220;2023-03-17T00:50:12;89775.97;;;1.86;81.72
22649;BME280;11491;41.942;24.220;2023-03-17T00:52:40;89772.84;;;1.98;81.65
22649;BME280;11491;41.942;24.220;2023-03-17T00:55:09;89778.72;;;1.94;81.59
22649;BME280;11491;41.942;24.220;2023-03-17T00:57:36;89771.50;;;1.86;81.45
22649;BME280;11491;41.942;24.220;2023-03-17T01:00:11;89783.00;;;1.90;81.62
22649;BME280;11491;41.942;24.220;2023-03-17T01:02:42;89782.34;;;1.85;81.65
22649;BME280;11491;41.942;24.220;2023-03-17T01:05:10;89782.13;;;1.81;81.61
22649;BME280;11491;41.942;24.220;2023-03-17T01:07:37;89781.56;;;1.84;82.21
22649;BME280;11491;41.942;24.220;2023-03-17T01:10:12;89774.22;;;1.81;82.48
22649;BME280;11491;41.942;24.220;2023-03-17T01:12:40;89787.31;;;1.86;82.39
22649;BME280;11491;41.942;24.220;2023-03-17T01:15:08;89791.22;;;1.89;82.09
22649;BME280;11491;41.942;24.220;2023-03-17T01:17:35;89797.06;;;1.86;82.49
22649;BME280;11491;41.942;24.220;2023-03-17T01:20:03;89790.63;;;1.78;82.79
22649;BME280;11491;41.942;24.220;2023-03-17T01:22:30;89791.41;;;1.92;82.26
22649;BME280;11491;41.942;24.220;2023-03-17T01:24:57;89796.78;;;1.87;82.49
22649;BME280;11491;41.942;24.220;2023-03-17T01:27:25;89786.13;;;1.92;82.23
22649;BME280;11491;41.942;24.220;2023-03-17T01:29:53;89780.38;;;1.77;82.57
22649;BME280;11491;41.942;24.220;2023-03-17T01:32:20;89798.63;;;1.73;82.87
22649;BME280;11491;41.942;24.220;2023-03-17T01:34:47;89801.16;;;1.78;82.69
22649;BME280;11491;41.942;24.220;2023-03-17T01:37:14;89810.34;;;1.81;83.21
22649;BME280;11491;41.942;24.220;2023-03-17T01:39:41;89800.38;;;1.78;82.92
22649;BME280;11491;41.942;24.220;2023-03-17T01:42:08;89802.75;;;1.79;82.95
22649;BME280;11491;41.942;24.220;2023-03-17T01:44:57;89806.25;;;1.88;82.92
22649;BME280;11491;41.942;24.220;2023-03-17T01:47:26;89813.09;;;1.89;82.56
22649;BME280;11491;41.942;24.220;2023-03-17T01:49:55;89813.09;;;1.89;82.69
22649;BME280;11491;41.942;24.220;2023-03-17T01:52:23;89803.50;;;1.93;82.51
22649;BME280;11491;41.942;24.220;2023-03-17T01:54:53;89801.56;;;1.85;82.76
22649;BME280;11491;41.942;24.220;2023-03-17T01:57:25;89813.69;;;1.86;82.47
22649;BME280;11491;41.942;24.220;2023-03-17T01:59:56;89809.38;;;1.90;82.88
22649;BME280;11491;41.942;24.220;2023-03-17T02:02:31;89808.03;;;1.79;83.20
22649;BME280;11491;41.942;24.220;2023-03-17T02:04:59;89813.09;;;1.89;83.49
22649;BME280;11491;41.942;24.220;2023-03-17T02:07:26;89811.50;;;1.88;82.89
22649;BME280;11491;41.942;24.220;2023-03-17T02:09:54;89808.78;;;1.93;83.08
22649;BME280;11491;41.942;24.220;2023-03-17T02:12:23;89817.00;;;1.92;83.20
22649;BME280;11491;41.942;24.220;2023-03-17T02:14:51;89818.75;;;1.97;83.41
22649;BME280;11491;41.942;24.220;2023-03-17T02:17:19;89812.31;;;1.89;82.83
22649;BME280;11491;41.942;24.220;2023-03-17T02:19:48;89820.41;;;1.92;82.64
22649;BME280;11491;41.942;24.220;2023-03-17T02:22:17;89824.69;;;1.88;82.69
22649;BME280;11491;41.942;24.220;2023-03-17T02:24:47;89828.31;;;1.92;82.98
22649;BME280;11491;41.942;24.220;2023-03-17T02:27:17;89822.06;;;1.88;82.55
22649;BME280;11491;41.942;24.220;2023-03-17T02:29:46;89828.13;;;1.89;83.29
22649;BME280;11491;41.942;24.220;2023-03-17T02:32:14;89816.59;;;1.85;82.73
22649;BME280;11491;41.942;24.220;2023-03-17T02:34:42;89829.31;;;1.97;81.91
22649;BME280;11491;41.942;24.220;2023-03-17T02:37:09;89833.09;;;1.90;81.90
22649;BME280;11491;41.942;24.220;2023-03-17T02:39:37;89834.19;;;1.89;81.94
22649;BME280;11491;41.942;24.220;2023-03-17T02:42:05;89836.53;;;1.77;82.49
22649;BME280;11491;41.942;24.220;2023-03-17T02:44:32;89844.13;;;1.65;82.71
22649;BME280;11491;41.942;24.220;2023-03-17T02:46:58;89840.00;;;1.45;83.91
22649;BME280;11491;41.942;24.220;2023-03-17T02:49:26;89844.06;;;1.37;83.84
22649;BME280;11491;41.942;24.220;2023-03-17T02:51:53;89854.34;;;1.20;84.55
22649;BME280;11491;41.942;24.220;2023-03-17T02:54:20;89843.00;;;1.05;85.46
22649;BME280;11491;41.942;24.220;2023-03-17T02:56:48;89847.63;;;0.95;86.34
22649;BME280;11491;41.942;24.220;2023-03-17T02:59:15;89850.13;;;0.86;86.52
22649;BME280;11491;41.942;24.220;2023-03-17T03:01:42;89850.69;;;0.83;86.74
22649;BME280;11491;41.942;24.220;2023-03-17T03:04:09;89855.22;;;0.96;86.79
22649;BME280;11491;41.942;24.220;2023-03-17T03:06:36;89857.78;;;1.01;86.40
22649;BME280;11491;41.942;24.220;2023-03-17T03:09:04;89859.38;;;1.02;86.70
22649;BME280;11491;41.942;24.220;2023-03-17T03:11:31;89865.19;;;0.99;86.44
22649;BME280;11491;41.942;24.220;2023-03-17T03:13:59;89865.00;;;0.96;86.95
22649;BME280;11491;41.942;24.220;2023-03-17T03:16:28;89865.75;;;0.96;86.72
22649;BME280;11491;41.942;24.220;2023-03-17T03:18:55;89860.81;;;0.76;86.69
22649;BME280;11491;41.942;24.220;2023-03-17T03:21:21;89869.13;;;0.83;87.37
22649;BME280;11491;41.942;24.220;2023-03-17T03:23:48;89871.03;;;0.96;87.61
22649;BME280;11491;41.942;24.220;2023-03-17T03:26:15;89873.59;;;1.01;87.26
22649;BME280;11491;41.942;24.220;2023-03-17T03:28:42;89872.03;;;1.00;87.12
22649;BME280;11491;41.942;24.220;2023-03-17T03:31:10;89881.50;;;1.01;86.95
22649;BME280;11491;41.942;24.220;2023-03-17T03:33:38;89889.19;;;0.98;87.14
22649;BME280;11491;41.942;24.220;2023-03-17T03:36:05;89882.22;;;0.88;87.68
22649;BME280;11491;41.942;24.220;2023-03-17T03:38:33;89882.66;;;0.95;86.98
22649;BME280;11491;41.942;24.220;2023-03-17T03:41:00;89893.03;;;1.05;86.90
22649;BME280;11491;41.942;24.220;2023-03-17T03:43:26;89893.53;;;1.07;86.58
22649;BME280;11491;41.942;24.220;2023-03-17T03:45:53;89899.38;;;1.04;86.67
22649;BME280;11491;41.942;24.220;2023-03-17T03:48:21;89895.81;;;0.95;86.69
22649;BME280;11491;41.942;24.220;2023-03-17T03:50:48;89896.16;;;0.89;86.90
22649;BME280;11491;41.942;24.220;2023-03-17T03:53:15;89900.72;;;0.83;86.48
22649;BME280;11491;41.942;24.220;2023-03-17T03:55:42;89896.88;;;0.75;86.93
22649;BME280;11491;41.942;24.220;2023-03-17T03:58:09;89909.19;;;0.80;87.64
22649;BME280;11491;41.942;24.220;2023-03-17T04:00:35;89900.22;;;0.81;88.21
22649;BME280;11491;41.942;24.220;2023-03-17T04:03:02;89910.09;;;0.89;86.99
22649;BME280;11491;41.942;24.220;2023-03-17T04:05:30;89913.31;;;0.86;86.99
22649;BME280;11491;41.942;24.220;2023-03-17T04:07:57;89912.44;;;0.91;87.17
22649;BME280;11491;41.942;24.220;2023-03-17T04:10:24;89917.31;;;1.02;86.06
22649;BME280;11491;41.942;24.220;2023-03-17T04:12:51;89919.44;;;1.00;86.72
22649;BME280;11491;41.942;24.220;2023-03-17T04:15:18;89917.84;;;0.99;86.10
22649;BME280;11491;41.942;24.220;2023-03-17T04:17:45;89904.22;;;0.97;86.46
22649;BME280;11491;41.942;24.220;2023-03-17T04:20:13;89913.59;;;1.03;85.83
22649;BME280;11491;41.942;24.220;2023-03-17T04:22:42;89916.72;;;1.05;85.99
22649;BME280;11491;41.942;24.220;2023-03-17T04:25:10;89923.41;;;0.98;85.92
22649;BME280;11491;41.942;24.220;2023-03-17T04:27:37;89927.06;;;1.02;85.92
22649;BME280;11491;41.942;24.220;2023-03-17T04:30:05;89919.44;;;1.00;85.57
22649;BME280;11491;41.942;24.220;2023-03-17T04:32:32;89933.53;;;1.10;85.95
22649;BME280;11491;41.942;24.220;2023-03-17T04:34:59;89931.44;;;1.06;86.11
22649;BME280;11491;41.942;24.220;2023-03-17T04:37:26;89935.59;;;1.13;85.32
22649;BME280;11491;41.942;24.220;2023-03-17T04:39:54;89940.19;;;1.21;84.88
22649;BME280;11491;41.942;24.220;2023-03-17T04:42:20;89940.19;;;1.21;84.94
22649;BME280;11491;41.942;24.220;2023-03-17T04:44:47;89947.25;;;1.25;85.42
22649;BME280;11491;41.942;24.220;2023-03-17T04:47:14;89952.94;;;1.33;83.81
22649;BME280;11491;41.942;24.220;2023-03-17T04:49:41;89948.09;;;1.40;84.16
22649;BME280;11491;41.942;24.220;2023-03-17T04:52:08;89952.97;;;1.46;83.42
22649;BME280;11491;41.942;24.220;2023-03-17T04:54:35;89948.13;;;1.54;83.53
22649;BME280;11491;41.942;24.220;2023-03-17T04:57:03;89969.47;;;1.71;82.61
22649;BME280;11491;41.942;24.220;2023-03-17T04:59:30;89956.03;;;1.72;81.95
22649;BME280;11491;41.942;24.220;2023-03-17T05:01:57;89966.28;;;1.74;81.01
22649;BME280;11491;41.942;24.220;2023-03-17T05:04:23;89970.97;;;1.77;80.68
22649;BME280;11491;41.942;24.220;2023-03-17T05:06:50;89971.47;;;1.79;80.13
22649;BME280;11491;41.942;24.220;2023-03-17T05:09:17;89980.59;;;1.68;80.80
22649;BME280;11491;41.942;24.220;2023-03-17T05:11:44;89981.59;;;1.72;79.96
22649;BME280;11491;41.942;24.220;2023-03-17T05:14:12;89972.59;;;1.73;80.11
22649;BME280;11491;41.942;24.220;2023-03-17T05:16:38;89981.75;;;1.62;80.56
22649;BME280;11491;41.942;24.220;2023-03-17T05:19:05;89970.22;;;1.58;81.41
22649;BME280;11491;41.942;24.220;2023-03-17T05:21:32;89986.94;;;1.67;81.10
22649;BME280;11491;41.942;24.220;2023-03-17T05:23:59;89988.75;;;1.53;81.17
22649;BME280;11491;41.942;24.220;2023-03-17T05:26:26;89999.13;;;1.63;81.77
22649;BME280;11491;41.942;24.220;2023-03-17T05:28:53;89996.66;;;1.71;80.80
22649;BME280;11491;41.942;24.220;2023-03-17T05:31:21;90000.56;;;1.74;80.08
22649;BME280;11491;41.942;24.220;2023-03-17T05:33:48;90003.81;;;1.66;79.82
22649;BME280;11491;41.942;24.220;2023-03-17T05:36:15;90001.84;;;1.58;80.20
22649;BME280;11491;41.942;24.220;2023-03-17T05:38:42;89998.13;;;1.59;80.62
22649;BME280;11491;41.942;24.220;2023-03-17T05:41:09;90004.22;;;1.59;81.00
22649;BME280;11491;41.942;24.220;2023-03-17T05:43:36;90009.69;;;1.63;80.97
22649;BME280;11491;41.942;24.220;2023-03-17T05:46:03;90012.97;;;1.55;80.95
22649;BME280;11491;41.942;24.220;2023-03-17T05:48:32;90015.53;;;1.60;79.88
22649;BME280;11491;41.942;24.220;2023-03-17T05:50:59;90017.38;;;1.59;80.49
22649;BME280;11491;41.942;24.220;2023-03-17T05:53:26;90017.09;;;1.61;80.22
22649;BME280;11491;41.942;24.220;2023-03-17T05:55:53;90010.41;;;1.49;80.00
22649;BME280;11491;41.942;24.220;2023-03-17T05:58:19;90025.22;;;1.45;81.07
22649;BME280;11491;41.942;24.220;2023-03-17T06:00:46;90026.75;;;1.46;80.44
22649;BME280;11491;41.942;24.220;2023-03-17T06:03:13;90030.47;;;1.45;80.90
22649;BME280;11491;41.942;24.220;2023-03-17T06:05:41;90038.75;;;1.58;80.79
22649;BME280;11491;41.942;24.220;2023-03-17T06:08:08;90034.47;;;1.62;80.65
22649;BME280;11491;41.942;24.220;2023-03-17T06:10:35;90038.00;;;1.71;80.11
22649;BME280;11491;41.942;24.220;2023-03-17T06:13:02;90042.72;;;1.74;78.84
22649;BME280;11491;41.942;24.220;2023-03-17T06:15:29;90043.28;;;1.71;79.89
22649;BME280;11491;41.942;24.220;2023-03-17T06:17:55;90047.44;;;1.77;79.29
22649;BME280;11491;41.942;24.220;2023-03-17T06:20:23;90048.06;;;1.69;78.78
22649;BME280;11491;41.942;24.220;2023-03-17T06:22:51;90048.00;;;1.74;78.50
22649;BME280;11491;41.942;24.220;2023-03-17T06:25:18;90058.56;;;1.74;78.87
22649;BME280;11491;41.942;24.220;2023-03-17T06:27:45;90060.09;;;1.75;79.73
22649;BME280;11491;41.942;24.220;2023-03-17T06:30:12;90062.47;;;1.77;79.96
22649;BME280;11491;41.942;24.220;2023-03-17T06:32:39;90052.84;;;1.67;79.51
22649;BME280;11491;41.942;24.220;2023-03-17T06:35:06;90058.56;;;1.74;79.84
22649;BME280;11491;41.942;24.220;2023-03-17T06:37:34;90068.66;;;1.86;80.03
22649;BME280;11491;41.942;24.220;2023-03-17T06:40:03;90056.66;;;1.93;79.11
22649;BME280;11491;41.942;24.220;2023-03-17T06:42:30;90065.50;;;2.03;78.84
22649;BME280;11491;41.942;24.220;2023-03-17T06:44:57;90069.22;;;2.02;78.90
22649;BME280;11491;41.942;24.220;2023-03-17T06:47:23;90067.09;;;1.85;78.48
22649;BME280;11491;41.942;24.220;2023-03-17T06:49:50;90064.50;;;1.99;78.77
22649;BME280;11491;41.942;24.220;2023-03-17T06:52:17;90067.63;;;2.01;78.48
22649;BME280;11491;41.942;24.220;2023-03-17T06:54:44;90071.19;;;2.10;78.20
22649;BME280;11491;41.942;24.220;2023-03-17T06:57:12;90073.75;;;2.15;77.91
22649;BME280;11491;41.942;24.220;2023-03-17T06:59:39;90075.72;;;2.23;78.00
22649;BME280;11491;41.942;24.220;2023-03-17T07:02:06;90080.19;;;2.42;76.58
22649;BME280;11491;41.942;24.220;2023-03-17T07:04:32;90083.97;;;2.35;76.54
22649;BME280;11491;41.942;24.220;2023-03-17T07:07:01;90080.09;;;2.47;75.86
22649;BME280;11491;41.942;24.220;2023-03-17T07:09:29;90084.63;;;2.60;75.86
22649;BME280;11491;41.942;24.220;2023-03-17T07:11:57;90090.88;;;2.64;75.08
22649;BME280;11491;41.942;24.220;2023-03-17T07:14:31;90087.16;;;2.65;74.50
22649;BME280;11491;41.942;24.220;2023-03-17T07:16:58;90086.09;;;2.66;75.16
22649;BME280;11491;41.942;24.220;2023-03-17T07:19:25;90087.78;;;2.76;74.80
22649;BME280;11491;41.942;24.220;2023-03-17T07:21:52;90088.97;;;2.84;74.93
22649;BME280;11491;41.942;24.220;2023-03-17T07:24:20;90087.97;;;2.79;75.07
22649;BME280;11491;41.942;24.220;2023-03-17T07:26:46;90084.47;;;2.84;75.25
22649;BME280;11491;41.942;24.220;2023-03-17T07:29:13;90076.63;;;2.93;74.13
22649;BME280;11491;41.942;24.220;2023-03-17T07:31:42;90082.72;;;3.07;74.58
22649;BME280;11491;41.942;24.220;2023-03-17T07:34:09;90083.09;;;3.14;74.86
22649;BME280;11491;41.942;24.220;2023-03-17T07:36:36;90073.88;;;3.39;73.37
22649;BME280;11491;41.942;24.220;2023-03-17T07:39:03;90064.69;;;3.37;71.54
22649;BME280;11491;41.942;24.220;2023-03-17T07:41:30;90082.59;;;3.54;71.47
22649;BME280;11491;41.942;24.220;2023-03-17T07:43:57;90087.78;;;3.59;71.13
22649;BME280;11491;41.942;24.220;2023-03-17T07:46:24;90088.56;;;3.59;71.31
22649;BME280;11491;41.942;24.220;2023-03-17T07:48:52;90087.94;;;3.62;71.56
22649;BME280;11491;41.942;24.220;2023-03-17T07:51:20;90091.69;;;3.61;71.25
22649;BME280;11491;41.942;24.220;2023-03-17T07:53:50;90092.63;;;3.79;71.04
22649;BME280;11491;41.942;24.220;2023-03-17T07:56:17;90091.25;;;3.82;71.74
22649;BME280;11491;41.942;24.220;2023-03-17T07:58:44;90089.59;;;3.86;69.11
22649;BME280;11491;41.942;24.220;2023-03-17T08:01:10;90086.66;;;3.74;71.67
22649;BME280;11491;41.942;24.220;2023-03-17T08:03:37;90101.81;;;3.96;70.05
22649;BME280;11491;41.942;24.220;2023-03-17T08:06:06;90096.28;;;4.06;69.73
22649;BME280;11491;41.942;24.220;2023-03-17T08:08:33;90101.97;;;3.99;69.97
22649;BME280;11491;41.942;24.220;2023-03-17T08:11:01;90109.31;;;4.02;69.50
22649;BME280;11491;41.942;24.220;2023-03-17T08:13:29;90104.03;;;4.02;69.88
22649;BME280;11491;41.942;24.220;2023-03-17T08:15:56;90101.97;;;3.99;70.04
22649;BME280;11491;41.942;24.220;2023-03-17T08:18:23;90111.16;;;4.16;69.54
22649;BME280;11491;41.942;24.220;2023-03-17T08:20:49;90107.53;;;4.12;70.05
22649;BME280;11491;41.942;24.220;2023-03-17T08:23:18;90097.94;;;4.38;67.83
22649;BME280;11491;41.942;24.220;2023-03-17T08:25:46;90101.34;;;4.61;66.06
22649;BME280;11491;41.942;24.220;2023-03-17T08:28:13;90099.00;;;4.82;69.21
22649;BME280;11491;41.942;24.220;2023-03-17T08:30:40;90109.56;;;5.05;68.63
22649;BME280;11491;41.942;24.220;2023-03-17T08:33:07;90102.47;;;5.31;67.04
22649;BME280;11491;41.942;24.220;2023-03-17T08:35:35;90099.38;;;5.29;61.60
22649;BME280;11491;41.942;24.220;2023-03-17T08:38:02;90101.00;;;5.08;64.04
22649;BME280;11491;41.942;24.220;2023-03-17T08:40:30;90101.88;;;4.94;68.21
22649;BME280;11491;41.942;24.220;2023-03-17T08:42:57;90100.78;;;4.95;68.55
22649;BME280;11491;41.942;24.220;2023-03-17T08:45:24;90102.22;;;4.79;66.59
22649;BME280;11491;41.942;24.220;2023-03-17T08:47:51;90104.75;;;4.84;68.66
22649;BME280;11491;41.942;24.220;2023-03-17T08:50:19;90100.94;;;4.99;66.91
22649;BME280;11491;41.942;24.220;2023-03-17T08:52:47;90092.69;;;5.01;66.60
22649;BME280;11491;41.942;24.220;2023-03-17T08:55:14;90101.13;;;5.03;66.30
22649;BME280;11491;41.942;24.220;2023-03-17T08:57:43;90100.91;;;4.90;66.17
22649;BME280;11491;41.942;24.220;2023-03-17T09:00:11;90100.97;;;4.77;66.27
22649;BME280;11491;41.942;24.220;2023-03-17T09:02:40;90097.81;;;4.66;64.50
22649;BME280;11491;41.942;24.220;2023-03-17T09:05:08;90090.59;;;4.58;63.92
22649;BME280;11491;41.942;24.220;2023-03-17T09:07:36;90093.56;;;4.87;67.21
22649;BME280;11491;41.942;24.220;2023-03-17T09:10:04;90098.88;;;4.87;64.26
22649;BME280;11491;41.942;24.220;2023-03-17T09:12:31;90095.03;;;5.02;62.62
22649;BME280;11491;41.942;24.220;2023-03-17T09:14:59;90100.50;;;5.06;63.21
22649;BME280;11491;41.942;24.220;2023-03-17T09:17:27;90086.44;;;4.96;65.91
22649;BME280;11491;41.942;24.220;2023-03-17T09:19:54;90110.16;;;5.02;67.09
22649;BME280;11491;41.942;24.220;2023-03-17T09:22:21;90115.13;;;4.94;66.28
22649;BME280;11491;41.942;24.220;2023-03-17T09:24:48;90106.69;;;4.92;67.30
22649;BME280;11491;41.942;24.220;2023-03-17T09:27:15;90113.63;;;5.11;67.28
22649;BME280;11491;41.942;24.220;2023-03-17T09:29:42;90111.19;;;5.23;67.11
22649;BME280;11491;41.942;24.220;2023-03-17T09:32:10;90112.88;;;5.19;65.19
22649;BME280;11491;41.942;24.220;2023-03-17T09:34:37;90109.97;;;5.29;67.90
22649;BME280;11491;41.942;24.220;2023-03-17T09:37:03;90113.69;;;5.28;65.55
22649;BME280;11491;41.942;24.220;2023-03-17T09:39:31;90110.34;;;5.05;63.71
22649;BME280;11491;41.942;24.220;2023-03-17T09:42:07;90117.63;;;5.00;64.78
22649;BME280;11491;41.942;24.220;2023-03-17T09:45:01;90122.31;;;5.03;65.15
22649;BME280;11491;41.942;24.220;2023-03-17T09:50:29;90108.59;;;5.40;62.67
22649;BME280;11491;41.942;24.220;2023-03-17T09:52:59;90102.47;;;5.31;64.50
22649;BME280;11491;41.942;24.220;2023-03-17T09:55:29;90102.09;;;5.47;64.01
22649;BME280;11491;41.942;24.220;2023-03-17T09:57:57;90105.53;;;5.47;63.69
22649;BME280;11491;41.942;24.220;2023-03-17T10:00:26;90102.41;;;5.54;62.73
22649;BME280;11491;41.942;24.220;2023-03-17T10:02:55;90102.28;;;5.59;63.20
22649;BME280;11491;41.942;24.220;2023-03-17T10:05:24;90096.06;;;5.72;63.98
22649;BME280;11491;41.942;24.220;2023-03-17T10:07:59;90104.84;;;5.81;62.96
22649;BME280;11491;41.942;24.220;2023-03-17T10:10:36;90100.25;;;5.65;61.64
22649;BME280;11491;41.942;24.220;2023-03-17T10:13:14;90107.22;;;5.43;60.96
22649;BME280;11491;41.942;24.220;2023-03-17T10:15:49;90109.78;;;5.17;63.04
22649;BME280;11491;41.942;24.220;2023-03-17T10:18:23;90115.72;;;4.91;64.24
22649;BME280;11491;41.942;24.220;2023-03-17T10:20:55;90106.69;;;4.92;67.66
22649;BME280;11491;41.942;24.220;2023-03-17T10:23:26;90110.38;;;4.83;65.66
22649;BME280;11491;41.942;24.220;2023-03-17T10:25:54;90101.16;;;4.80;65.34
22649;BME280;11491;41.942;24.220;2023-03-17T10:28:27;90110.75;;;4.99;66.64
22649;BME280;11491;41.942;24.220;2023-03-17T10:30:57;90110.75;;;4.99;65.45
22649;BME280;11491;41.942;24.220;2023-03-17T10:33:28;90110.25;;;4.88;63.53
22649;BME280;11491;41.942;24.220;2023-03-17T10:36:06;90103.31;;;4.78;63.91
22649;BME280;11491;41.942;24.220;2023-03-17T10:38:34;90105.09;;;4.91;63.76
22649;BME280;11491;41.942;24.220;2023-03-17T10:41:05;90111.03;;;5.20;65.38
22649;BME280;11491;41.942;24.220;2023-03-17T10:43:44;90113.28;;;5.35;64.87
22649;BME280;11491;41.942;24.220;2023-03-17T10:46:18;90110.63;;;5.44;63.12
22649;BME280;11491;41.942;24.220;2023-03-17T10:48:50;90110.13;;;5.33;62.20
22649;BME280;11491;41.942;24.220;2023-03-17T10:51:28;90110.56;;;5.26;61.65
22649;BME280;11491;41.942;24.220;2023-03-17T10:53:59;90113.22;;;5.26;62.97
22649;BME280;11491;41.942;24.220;2023-03-17T10:56:27;90118.72;;;5.38;63.76
22649;BME280;11491;41.942;24.220;2023-03-17T10:58:55;90119.00;;;5.28;63.57
22649;BME280;11491;41.942;24.220;2023-03-17T11:01:27;90114.66;;;5.32;62.78
22649;BME280;11491;41.942;24.220;2023-03-17T11:03:56;90098.75;;;5.32;63.37
22649;BME280;11491;41.942;24.220;2023-03-17T11:06:33;90097.84;;;5.46;64.34
22649;BME280;11491;41.942;24.220;2023-03-17T11:09:06;90104.59;;;5.52;62.81
22649;BME280;11491;41.942;24.220;2023-03-17T11:11:42;90099.50;;;5.64;60.61
22649;BME280;11491;41.942;24.220;2023-03-17T11:14:12;90090.88;;;5.58;57.97
22649;BME280;11491;41.942;24.220;2023-03-17T11:16:47;90102.59;;;5.66;57.74
22649;BME280;11491;41.942;24.220;2023-03-17T11:19:20;90109.00;;;5.74;59.05
22649;BME280;11491;41.942;24.220;2023-03-17T11:21:54;90093.56;;;5.67;59.76
22649;BME280;11491;41.942;24.220;2023-03-17T11:24:28;90089.66;;;5.73;59.32
22649;BME280;11491;41.942;24.220;2023-03-17T11:26:58;90093.88;;;5.74;60.67
22649;BME280;11491;41.942;24.220;2023-03-17T11:29:37;90087.63;;;5.70;58.67
22649;BME280;11491;41.942;24.220;2023-03-17T11:32:22;90094.97;;;5.65;60.58
22649;BME280;11491;41.942;24.220;2023-03-17T11:37:56;90086.09;;;5.69;59.09
22649;BME280;11491;41.942;24.220;2023-03-17T11:40:28;90080.81;;;5.87;60.33
22649;BME280;11491;41.942;24.220;2023-03-17T11:43:10;90087.38;;;5.98;56.62
22649;BME280;11491;41.942;24.220;2023-03-17T11:45:44;90085.63;;;5.93;58.79
22649;BME280;11491;41.942;24.220;2023-03-17T11:48:27;90087.72;;;6.05;56.39
22649;BME280;11491;41.942;24.220;2023-03-17T11:51:01;90084.84;;;5.93;55.43
22649;BME280;11491;41.942;24.220;2023-03-17T11:53:39;90091.84;;;5.71;58.73
22649;BME280;11491;41.942;24.220;2023-03-17T11:56:13;90082.56;;;5.43;58.71
22649;BME280;11491;41.942;24.220;2023-03-17T11:58:45;90087.25;;;5.46;59.64
22649;BME280;11491;41.942;24.220;2023-03-17T12:01:16;90084.47;;;5.51;55.81
22649;BME280;11491;41.942;24.220;2023-03-17T12:03:48;90054.97;;;5.04;59.37
22649;BME280;11491;41.942;24.220;2023-03-17T12:06:23;90087.13;;;5.11;60.58
22649;BME280;11491;41.942;24.220;2023-03-17T12:08:54;90087.38;;;5.01;59.24
22649;BME280;11491;41.942;24.220;2023-03-17T12:11:27;90037.97;;;4.65;59.89
22649;BME280;11491;41.942;24.220;2023-03-17T12:13:58;90086.13;;;4.98;61.31
22649;BME280;11491;41.942;24.220;2023-03-17T12:16:30;90083.41;;;5.12;61.13
22649;BME280;11491;41.942;24.220;2023-03-17T12:19:03;90083.06;;;5.05;60.17
22649;BME280;11491;41.942;24.220;2023-03-17T12:21:36;90079.31;;;5.06;60.77
22649;BME280;11491;41.942;24.220;2023-03-17T12:24:10;90087.25;;;5.06;61.25
22649;BME280;11491;41.942;24.220;2023-03-17T12:26:43;90080.09;;;5.06;59.98
22649;BME280;11491;41.942;24.220;2023-03-17T12:29:17;90079.56;;;4.95;61.14
22649;BME280;11491;41.942;24.220;2023-03-17T12:31:52;90081.13;;;4.96;61.04
22649;BME280;11491;41.942;24.220;2023-03-17T12:34:25;90076.09;;;4.86;60.60
22649;BME280;11491;41.942;24.220;2023-03-17T12:36:55;90077.69;;;4.87;61.44
22649;BME280;11491;41.942;24.220;2023-03-17T12:39:26;90080.78;;;4.89;60.75
22649;BME280;11491;41.942;24.220;2023-03-17T12:42:01;90081.38;;;4.86;61.04
22649;BME280;11491;41.942;24.220;2023-03-17T12:44:41;90079.00;;;4.76;61.56
22649;BME280;11491;41.942;24.220;2023-03-17T12:47:29;90080.19;;;4.92;62.16
22649;BME280;11491;41.942;24.220;2023-03-17T12:50:08;90080.19;;;4.92;60.95
22649;BME280;11491;41.942;24.220;2023-03-17T12:53:02;90075.94;;;4.83;59.35
22649;BME280;11491;41.942;24.220;2023-03-17T12:55:34;90068.91;;;4.78;59.54
22649;BME280;11491;41.942;24.220;2023-03-17T12:58:03;90077.81;;;4.82;59.87
22649;BME280;11491;41.942;24.220;2023-03-17T13:00:36;90075.16;;;4.82;60.62
22649;BME280;11491;41.942;24.220;2023-03-17T13:03:20;90084.78;;;4.78;60.82
22649;BME280;11491;41.942;24.220;2023-03-17T13:05:50;90080.09;;;4.75;60.98
22649;BME280;11491;41.942;24.220;2023-03-17T13:08:23;90087.03;;;4.93;62.00
22649;BME280;11491;41.942;24.220;2023-03-17T13:11:13;90082.72;;;4.97;60.34
22649;BME280;11491;41.942;24.220;2023-03-17T13:13:44;90080.91;;;4.84;60.68
22649;BME280;11491;41.942;24.220;2023-03-17T13:16:31;90082.34;;;4.90;61.92